• Join FlightAware (Why Join?)
  • Login
  • US Flag 
 
08:20AM EST


 

Airport Tracker/Info


-or-


 

Live Flight TrackerFlight Track Log ✈ CES2612 ✈ 23-Apr-2013 ✈ ZHHH / WUH - ZUUU / CTU

Flight Track Log - Related Links

Times and Time Zones

All times are in EDT time to prevent confusion due to time zone crossing. See the CES2612 flight status page for this flight to view local times or setup timezone preferences in your user account.

Time Position Orientation Groundspeed Altitude Reporting Facility
EDT Latitude Longitude Course Direction KTS MPH feet Rate Location/Type
10:15AM 30.8079 111.9855 271° West  Level Estimated
10:16AM 30.8081 111.8797 270° West  Level Estimated
10:17AM 30.8083 111.7738 270° West  Level Estimated
10:18AM 30.8083 111.6679 270° West  Level Estimated
10:19AM 30.8082 111.5621 270° West  Level Estimated
10:20AM 30.8081 111.4562 270° West  Level Estimated
10:21AM 30.8079 111.3504 270° West  Level Estimated
10:22AM 30.8076 111.2445 270° West  Level Estimated
10:23AM 30.8072 111.1386 270° West  Level Estimated
10:24AM 30.8067 111.0328 270° West  Level Estimated
10:25AM 30.8061 110.9269 270° West  Level Estimated
10:26AM 30.8055 110.8211 270° West  Level Estimated
10:27AM 30.8047 110.7152 270° West  Level Estimated
10:28AM 30.8039 110.6094 270° West  Level Estimated
10:29AM 30.8030 110.5035 269° West  Level Estimated
10:30AM 30.8020 110.3977 269° West  Level Estimated
10:31AM 30.8009 110.2919 269° West  Level Estimated
10:32AM 30.7997 110.1860 269° West  Level Estimated
10:33AM 30.7985 110.0802 269° West  Level Estimated
10:34AM 30.7971 109.9743 269° West  Level Estimated
10:35AM 30.7957 109.8685 269° West  Level Estimated
10:36AM 30.7942 109.7627 269° West  Level Estimated
10:37AM 30.7926 109.6569 269° West  Level Estimated
10:38AM 30.7909 109.5510 269° West  Level Estimated
10:39AM 30.7891 109.4452 269° West  Level Estimated
10:40AM 30.7873 109.3394 269° West  Level Estimated
10:41AM 30.7853 109.2336 269° West  Level Estimated
10:42AM 30.7833 109.1278 269° West  Level Estimated
10:43AM 30.7812 109.0220 269° West  Level Estimated
10:44AM 30.7790 108.9162 269° West  Level Estimated
10:45AM 30.7767 108.8104 269° West  Level Estimated
10:46AM 30.7743 108.7046 269° West  Level Estimated
10:47AM 30.7718 108.5988 268° West  Level Estimated
10:48AM 30.7693 108.4931 268° West  Level Estimated
10:49AM 30.7667 108.3873 268° West  Level Estimated
10:50AM 30.7639 108.2815 268° West  Level Estimated
10:51AM 30.7611 108.1758 268° West  Level Estimated
10:52AM 30.7582 108.0700 268° West  Level Estimated
10:53AM 30.7553 107.9643 268° West  Level Estimated
10:54AM 30.7522 107.8586 268° West  Level Estimated
10:55AM 30.7491 107.7528 268° West  Level Estimated
10:56AM 30.7458 107.6471 268° West  Level Estimated
10:57AM 30.7425 107.5414 268° West  Level Estimated
10:58AM 30.7391 107.4357 268° West  Level Estimated
10:59AM 30.7356 107.3300 268° West  Level Estimated
11:00AM 30.7320 107.2243 268° West  Level Estimated
11:01AM 30.7284 107.1186 268° West  Level Estimated
11:02AM 30.7246 107.0129 268° West  Level Estimated
11:03AM 30.7208 106.9072 268° West  Level Estimated
11:04AM 30.7169 106.8016 268° West  Level Estimated
11:05AM 30.7129 106.6959 268° West  Level Estimated
11:06AM 30.7088 106.5903 267° West  Level Estimated
11:07AM 30.7046 106.4847 267° West  Level Estimated
11:08AM 30.7004 106.3790 267° West  Level Estimated
11:09AM 30.6960 106.2734 267° West  Level Estimated
11:10AM 30.6916 106.1678 267° West  Level Estimated
11:11AM 30.6871 106.0622 267° West  Level Estimated
11:12AM 30.6825 105.9566 267° West  Level Estimated
11:13AM 30.6778 105.8510 267° West  Level Estimated
11:14AM 30.6730 105.7455 267° West  Level Estimated
11:15AM 30.6681 105.6399 267° West  Level Estimated
11:16AM 30.6632 105.5344 267° West  Level Estimated
11:17AM 30.6582 105.4288 267° West  Level Estimated
11:18AM 30.6531 105.3233 267° West  Level Estimated
11:19AM 30.6479 105.2178 267° West  Level Estimated
11:20AM 30.6426 105.1123 267° West  Level Estimated
11:21AM 30.6372 105.0068 267° West  Level Estimated
11:22AM 30.6318 104.9013 267° West  Level Estimated
11:23AM 30.6262 104.7959 267° West  Level Estimated
11:24AM 30.6206 104.6904 266° West  Level Estimated
11:25AM 30.6149 104.5850 266° West  Level Estimated
11:26AM 30.6091 104.4796 266° West  Level Estimated
11:27AM 30.6032 104.3742 266° West  Level Estimated
11:28AM 30.5973 104.2688 266° West  Level Estimated
11:29AM 30.5912 104.1634 266° West  Level Estimated
11:30AM 30.5851 104.0580 266° West  Level Estimated
11:31AM 30.5789 103.9526 266° West  Level Estimated
11:32AM 30.5785 103.9471 266° West  Level Estimated
11:33AM 30.5785 103.9471 240° Southwest  Level Estimated
11:34AM 30.5785 103.9471 240° Southwest  Level Estimated
11:35AM 30.5785 103.9471 240° Southwest  Level Estimated
11:36AM 30.5785 103.9471 240° Southwest  Level Estimated
11:37AM 30.5785 103.9471 240° Southwest  Level Estimated
11:38AM 30.5785 103.9471 240° Southwest  Level Estimated
11:39AM 30.5785 103.9471 240° Southwest  Level Estimated
11:40AM 30.5785 103.9471 240° Southwest  Level Estimated
11:41AM 30.5785 103.9471 240° Southwest  Level Estimated
11:42AM 30.5785 103.9471 240° Southwest  Level Estimated
11:43AM 30.5785 103.9471 240° Southwest  Level Estimated
11:44AM 30.5785 103.9471 240° Southwest  Level Estimated
11:45AM 30.5785 103.9471 240° Southwest  Level Estimated
11:46AM 30.5785 103.9471 240° Southwest  Level Estimated
11:47AM 30.5785 103.9471 240° Southwest  Level Estimated